createdAt,value
2019-05-06T00:00:59.064Z,98.50
2019-05-06T00:03:25.378Z,98.40
2019-05-06T00:05:54.935Z,98.40
2019-05-06T00:08:24.631Z,98.40
2019-05-06T00:10:54.356Z,98.30
2019-05-06T00:13:24.328Z,98.20
2019-05-06T00:15:54.381Z,98.20
2019-05-06T00:18:24.631Z,98.10
2019-05-06T00:20:57.469Z,98.10
2019-05-06T00:23:27.404Z,98.10
2019-05-06T00:25:58.667Z,98.10
2019-05-06T00:28:33.830Z,98.00
2019-05-06T00:31:12.784Z,97.90
2019-05-06T00:33:35.832Z,97.60
2019-05-06T00:36:05.639Z,97.20
2019-05-06T00:38:36.050Z,96.70
2019-05-06T00:41:07.361Z,96.50
2019-05-06T00:43:37.070Z,96.30
2019-05-06T00:46:06.711Z,96.10
2019-05-06T00:48:36.404Z,96.00
2019-05-06T00:51:06.060Z,95.90
2019-05-06T00:53:37.267Z,95.80
2019-05-06T00:56:06.954Z,95.70
2019-05-06T00:58:36.547Z,95.50
2019-05-06T01:01:06.236Z,95.40
2019-05-06T01:03:35.872Z,95.20
2019-05-06T01:06:06.271Z,95.50
2019-05-06T01:08:35.873Z,95.10
2019-05-06T01:11:08.309Z,95.00
2019-05-06T01:13:39.606Z,94.90
2019-05-06T01:16:10.595Z,94.90
2019-05-06T01:18:40.303Z,94.80
2019-05-06T01:21:09.919Z,94.80
2019-05-06T01:23:43.713Z,94.80
2019-05-06T01:26:15.495Z,94.80
2019-05-06T01:28:45.986Z,94.80
2019-05-06T01:31:16.836Z,94.70
2019-05-06T01:33:47.661Z,94.70
2019-05-06T01:36:17.334Z,94.60
2019-05-06T01:38:48.590Z,94.60
2019-05-06T01:41:19.795Z,94.60
2019-05-06T01:43:49.557Z,94.70
2019-05-06T01:46:19.167Z,94.70
2019-05-06T01:48:48.955Z,94.80
2019-05-06T01:51:23.891Z,94.80
2019-05-06T01:53:54.364Z,94.80
2019-05-06T01:56:25.449Z,94.80
2019-05-06T01:58:55.609Z,94.70
2019-05-06T02:01:25.272Z,94.60
2019-05-06T02:03:54.990Z,94.70
2019-05-06T02:06:25.065Z,94.70
2019-05-06T02:08:54.808Z,94.70
2019-05-06T02:11:24.410Z,94.70
2019-05-06T02:13:54.097Z,94.70
2019-05-06T02:16:24.170Z,94.80
2019-05-06T02:18:54.136Z,94.80
2019-05-06T02:21:26.445Z,94.80
2019-05-06T02:23:57.792Z,94.80
2019-05-06T02:26:27.407Z,94.80
2019-05-06T02:28:58.673Z,94.80
2019-05-06T02:31:29.951Z,94.80
2019-05-06T02:34:04.914Z,94.80
2019-05-06T02:36:34.608Z,94.90
2019-05-06T02:39:06.392Z,94.80
2019-05-06T02:41:35.185Z,94.60
2019-05-06T02:44:04.798Z,94.60
2019-05-06T02:46:35.640Z,94.60
2019-05-06T02:49:06.917Z,94.60
2019-05-06T02:51:36.534Z,94.60
2019-05-06T02:54:06.215Z,94.70
2019-05-06T02:56:35.821Z,94.80
2019-05-06T02:59:05.478Z,94.80
2019-05-06T03:01:35.077Z,94.80
2019-05-06T03:04:05.339Z,94.80
2019-05-06T03:06:34.970Z,94.80
2019-05-06T03:09:05.685Z,94.80
2019-05-06T03:11:35.391Z,94.80
2019-05-06T03:14:05.030Z,94.80
2019-05-06T03:16:34.723Z,94.90
2019-05-06T03:19:05.874Z,94.90
2019-05-06T03:21:37.199Z,94.90
2019-05-06T03:24:08.486Z,94.90
2019-05-06T03:26:38.139Z,94.90
2019-05-06T03:29:07.657Z,95.00
2019-05-06T03:31:37.305Z,95.10
2019-05-06T03:34:35.559Z,95.10
2019-05-06T03:36:40.638Z,95.20
2019-05-06T03:39:09.530Z,95.10
2019-05-06T03:41:39.170Z,95.10
2019-05-06T03:44:08.917Z,95.20
2019-05-06T03:46:42.824Z,95.10
2019-05-06T03:49:13.500Z,95.20
2019-05-06T03:51:42.950Z,95.20
2019-05-06T03:54:14.163Z,95.30
2019-05-06T03:56:44.565Z,95.20
2019-05-06T03:59:17.042Z,95.30
2019-05-06T04:01:46.586Z,95.40
2019-05-06T04:04:16.383Z,95.40
2019-05-06T04:06:46.514Z,95.50
2019-05-06T04:09:16.057Z,95.60
2019-05-06T04:11:46.104Z,95.70
2019-05-06T04:14:18.005Z,95.90
2019-05-06T04:16:49.461Z,96.00
2019-05-06T04:19:23.498Z,96.00
2019-05-06T04:21:53.644Z,96.20
2019-05-06T04:24:24.862Z,96.30
2019-05-06T04:26:58.617Z,96.40
2019-05-06T04:29:29.056Z,96.50
2019-05-06T04:31:58.654Z,96.60
2019-05-06T04:34:28.538Z,96.70
2019-05-06T04:36:58.221Z,96.80
2019-05-06T04:39:28.210Z,97.00
2019-05-06T04:41:58.347Z,97.10
2019-05-06T04:44:28.014Z,97.20
2019-05-06T04:46:57.711Z,97.20
2019-05-06T04:49:27.319Z,97.10
2019-05-06T04:51:57.595Z,97.00
2019-05-06T04:54:27.886Z,97.10
2019-05-06T04:56:57.643Z,97.00
2019-05-06T04:59:27.353Z,97.00
2019-05-06T05:01:57.021Z,97.20
2019-05-06T05:04:36.651Z,97.20
2019-05-06T05:07:04.782Z,97.20
2019-05-06T05:09:34.930Z,97.10
2019-05-06T05:12:06.151Z,97.10
2019-05-06T05:14:37.670Z,97.20
2019-05-06T05:17:09.174Z,97.20
2019-05-06T05:19:38.636Z,97.20
2019-05-06T05:22:08.377Z,97.20
2019-05-06T05:24:37.968Z,97.10
2019-05-06T05:27:07.756Z,96.90
2019-05-06T05:29:37.284Z,97.00
2019-05-06T05:32:06.899Z,97.00
2019-05-06T05:34:40.791Z,96.80
2019-05-06T05:37:12.150Z,96.70
2019-05-06T05:39:42.633Z,96.40
2019-05-06T05:42:13.938Z,96.30
2019-05-06T05:44:45.233Z,96.40
2019-05-06T05:47:15.192Z,96.10
2019-05-06T05:49:46.457Z,96.00
2019-05-06T05:52:16.125Z,95.70
2019-05-06T05:54:45.860Z,95.60
2019-05-06T05:57:16.641Z,95.40
2019-05-06T05:59:46.903Z,95.10
2019-05-06T06:02:16.582Z,95.00
2019-05-06T06:04:56.804Z,95.10
2019-05-06T06:07:22.558Z,95.10
2019-05-06T06:09:54.374Z,94.30
2019-05-06T06:12:23.992Z,94.40
2019-05-06T06:14:56.522Z,94.10
2019-05-06T06:17:28.074Z,93.80
2019-05-06T06:19:59.377Z,93.60
2019-05-06T06:22:32.929Z,93.20
2019-05-06T06:25:04.152Z,93.10
2019-05-06T06:27:34.995Z,92.90
2019-05-06T06:30:06.626Z,92.90
2019-05-06T06:32:36.407Z,92.50
2019-05-06T06:35:11.438Z,92.80
2019-05-06T06:37:42.645Z,91.80
2019-05-06T06:40:13.925Z,91.60
2019-05-06T06:42:45.218Z,90.80
2019-05-06T06:45:15.768Z,88.60
2019-05-06T06:47:45.481Z,87.00
2019-05-06T06:50:15.267Z,83.80
2019-05-06T06:52:46.328Z,83.90
2019-05-06T06:55:18.452Z,84.20
2019-05-06T06:57:49.094Z,83.20
2019-05-06T07:00:22.296Z,81.40
2019-05-06T07:02:53.247Z,80.60
2019-05-06T07:05:28.314Z,78.70
2019-05-06T07:07:56.394Z,78.60
2019-05-06T07:10:27.693Z,74.50
2019-05-06T07:12:57.734Z,67.90
2019-05-06T07:15:27.394Z,69.60
2019-05-06T07:17:57.175Z,66.40
2019-05-06T07:20:28.442Z,65.50
2019-05-06T07:22:57.994Z,61.80
2019-05-06T07:25:27.754Z,63.10
2019-05-06T07:27:59.465Z,60.70
2019-05-06T07:30:32.263Z,60.60
2019-05-06T07:33:03.623Z,60.50
2019-05-06T07:35:40.462Z,58.50
2019-05-06T07:38:05.645Z,59.30
2019-05-06T07:40:35.309Z,59.10
2019-05-06T07:43:06.615Z,59.60
2019-05-06T07:45:37.896Z,58.20
2019-05-06T07:48:09.097Z,60.00
2019-05-06T07:50:38.772Z,61.60
2019-05-06T07:53:08.948Z,62.80
2019-05-06T07:55:42.182Z,62.60
2019-05-06T07:58:13.556Z,64.30
2019-05-06T08:00:42.398Z,63.90
2019-05-06T08:03:14.079Z,63.60
2019-05-06T08:05:54.705Z,61.30
2019-05-06T08:08:14.681Z,62.20
2019-05-06T08:10:44.329Z,66.30
2019-05-06T08:13:14.026Z,64.70
2019-05-06T08:15:44.968Z,62.00
2019-05-06T08:18:14.518Z,60.80
2019-05-06T08:20:44.222Z,59.80
2019-05-06T08:23:15.447Z,57.60
2019-05-06T08:25:47.038Z,52.40
2019-05-06T08:28:16.620Z,52.40
2019-05-06T08:30:46.328Z,50.90
2019-05-06T08:33:15.948Z,52.60
2019-05-06T08:35:47.310Z,53.30
2019-05-06T08:38:16.893Z,54.60
2019-05-06T08:40:46.564Z,54.40
2019-05-06T08:43:16.251Z,54.50
2019-05-06T08:45:45.916Z,54.70
2019-05-06T08:48:16.616Z,57.90
2019-05-06T08:50:47.858Z,58.20
2019-05-06T08:53:17.744Z,56.20
2019-05-06T08:55:49.018Z,57.00
2019-05-06T08:58:18.595Z,57.90
2019-05-06T09:00:49.876Z,58.70
2019-05-06T09:03:25.606Z,58.90
2019-05-06T09:05:55.260Z,58.40
2019-05-06T09:08:25.338Z,59.40
2019-05-06T09:10:55.021Z,59.80
2019-05-06T09:13:24.677Z,59.30
2019-05-06T09:15:54.416Z,59.40
2019-05-06T09:18:24.232Z,59.10
2019-05-06T09:20:54.158Z,58.20
2019-05-06T09:23:23.745Z,59.00
2019-05-06T09:25:53.388Z,59.20
2019-05-06T09:28:24.622Z,55.10
2019-05-06T09:30:55.935Z,54.30
2019-05-06T09:33:27.222Z,54.20
2019-05-06T09:35:57.854Z,57.40
2019-05-06T09:38:27.461Z,53.70
2019-05-06T09:40:57.016Z,52.00
2019-05-06T09:43:26.657Z,54.10
2019-05-06T09:45:56.345Z,54.60
2019-05-06T09:48:27.674Z,54.90
2019-05-06T09:50:57.354Z,55.10
2019-05-06T09:53:28.597Z,56.30
2019-05-06T09:55:59.854Z,55.40
2019-05-06T09:58:32.287Z,55.80
2019-05-06T10:01:02.764Z,58.00
2019-05-06T10:03:32.519Z,56.10
2019-05-06T10:06:02.685Z,56.50
2019-05-06T10:08:32.769Z,56.50
2019-05-06T10:11:03.147Z,59.00
2019-05-06T10:13:33.090Z,57.10
2019-05-06T10:16:05.826Z,55.60
2019-05-06T10:18:35.526Z,55.90
2019-05-06T10:21:05.524Z,54.30
2019-05-06T10:23:36.640Z,54.00
2019-05-06T10:26:06.342Z,53.80
2019-05-06T10:28:37.997Z,53.50
2019-05-06T10:31:09.243Z,53.20
2019-05-06T10:33:42.653Z,54.90
2019-05-06T10:36:12.981Z,55.10
2019-05-06T10:38:45.663Z,53.50
2019-05-06T10:41:18.432Z,53.90
2019-05-06T10:43:52.550Z,53.10
2019-05-06T10:46:22.615Z,53.80
2019-05-06T10:48:53.179Z,50.40
2019-05-06T10:51:24.551Z,49.10
2019-05-06T10:53:54.236Z,50.50
2019-05-06T10:56:25.448Z,52.00
2019-05-06T10:58:55.574Z,53.60
2019-05-06T11:01:26.815Z,54.50
2019-05-06T11:03:56.483Z,53.80
2019-05-06T11:06:27.632Z,54.00
2019-05-06T11:08:58.305Z,54.70
2019-05-06T11:11:35.130Z,54.40
2019-05-06T11:13:59.271Z,55.00
2019-05-06T11:16:28.942Z,54.40
2019-05-06T11:18:58.581Z,55.20
2019-05-06T11:21:29.905Z,56.20
2019-05-06T11:24:00.607Z,55.70
2019-05-06T11:26:31.863Z,56.60
2019-05-06T11:29:05.135Z,55.80
2019-05-06T11:31:36.058Z,54.60
2019-05-06T11:34:07.357Z,52.30
2019-05-06T11:36:38.624Z,51.50
2019-05-06T11:39:14.009Z,50.70
2019-05-06T11:41:59.184Z,51.80
2019-05-06T11:44:14.355Z,51.50
2019-05-06T11:46:44.027Z,51.80
2019-05-06T11:49:13.643Z,52.80
2019-05-06T11:51:43.694Z,51.70
2019-05-06T11:54:19.428Z,49.40
2019-05-06T11:56:51.314Z,49.50
2019-05-06T11:59:17.580Z,49.90
2019-05-06T12:01:48.826Z,50.40
2019-05-06T12:04:18.367Z,51.30
2019-05-06T12:06:48.096Z,51.90
2019-05-06T12:09:17.683Z,51.30
2019-05-06T12:11:47.343Z,51.10
2019-05-06T12:14:16.858Z,51.90
2019-05-06T12:16:47.730Z,53.00
2019-05-06T12:19:17.478Z,54.10
2019-05-06T12:21:47.252Z,55.30
2019-05-06T12:24:16.869Z,53.90
2019-05-06T12:26:46.527Z,54.50
2019-05-06T12:29:16.176Z,54.60
2019-05-06T12:31:47.426Z,52.90
2019-05-06T12:34:17.032Z,52.50
2019-05-06T12:36:48.287Z,52.40
2019-05-06T12:39:19.973Z,51.90
2019-05-06T12:41:53.406Z,52.20
2019-05-06T12:44:23.327Z,50.80
2019-05-06T12:46:54.644Z,50.20
2019-05-06T12:49:24.363Z,50.20
2019-05-06T12:51:53.967Z,49.80
2019-05-06T12:54:23.704Z,50.50
2019-05-06T12:56:55.800Z,48.20
2019-05-06T12:59:25.470Z,47.60
2019-05-06T13:01:55.092Z,48.90
2019-05-06T13:04:44.338Z,49.60
2019-05-06T13:06:56.150Z,51.30
2019-05-06T13:09:25.902Z,50.10
2019-05-06T13:11:55.517Z,49.60
2019-05-06T13:14:33.174Z,51.60
2019-05-06T13:31:48.803Z,54.90
2019-05-06T13:34:23.506Z,54.00
2019-05-06T13:36:53.492Z,54.70
2019-05-06T13:39:23.826Z,55.80
2019-05-06T13:41:54.053Z,55.10
2019-05-06T13:44:24.759Z,55.90
2019-05-06T13:46:54.962Z,56.00
2019-05-06T13:49:29.414Z,57.10
2019-05-06T13:52:15.306Z,56.70
2019-05-06T13:55:02.545Z,55.70
2019-05-06T13:57:45.650Z,55.90
2019-05-06T14:00:18.507Z,54.50
2019-05-06T14:03:02.966Z,54.80
2019-05-06T14:05:45.105Z,53.90
2019-05-06T14:08:33.047Z,54.30
2019-05-06T14:11:05.812Z,55.00
2019-05-06T14:13:37.937Z,55.60
2019-05-06T14:16:24.509Z,54.30
2019-05-06T14:18:57.738Z,54.00
2019-05-06T14:21:53.697Z,55.00
2019-05-06T14:24:35.490Z,55.20
2019-05-06T14:27:22.168Z,55.50
2019-05-06T14:29:53.725Z,56.70
2019-05-06T14:32:23.806Z,55.50
2019-05-06T14:34:55.541Z,55.20
2019-05-06T14:37:25.693Z,54.40
2019-05-06T14:39:59.532Z,55.60
2019-05-06T14:42:28.364Z,55.40
2019-05-06T14:44:57.981Z,55.70
2019-05-06T14:47:29.246Z,52.60
2019-05-06T14:49:58.873Z,52.30
2019-05-06T14:52:28.527Z,54.20
2019-05-06T14:55:01.684Z,53.60
2019-05-06T14:57:32.302Z,54.00
2019-05-06T15:00:04.306Z,54.80
2019-05-06T15:02:33.945Z,54.00
2019-05-06T15:05:05.055Z,55.30
2019-05-06T15:07:34.815Z,55.20
2019-05-06T15:10:19.308Z,55.60
2019-05-06T15:12:35.734Z,55.00
2019-05-06T15:15:06.327Z,54.10
2019-05-06T15:17:37.027Z,54.80
2019-05-06T15:20:08.474Z,53.50
2019-05-06T15:22:38.633Z,54.20
2019-05-06T15:25:08.324Z,53.80
2019-05-06T15:27:38.073Z,53.90
2019-05-06T15:30:09.807Z,54.30
2019-05-06T15:32:39.898Z,54.30
2019-05-06T15:35:12.774Z,56.80
2019-05-06T15:37:45.202Z,57.20
2019-05-06T15:40:15.468Z,56.40
2019-05-06T15:42:46.421Z,56.90
2019-05-06T15:45:17.140Z,57.80
2019-05-06T15:47:46.853Z,58.50
2019-05-06T15:50:17.620Z,57.30
2019-05-06T15:52:47.353Z,57.70
2019-05-06T15:55:18.784Z,57.90
2019-05-06T15:57:48.386Z,59.20
2019-05-06T16:00:22.610Z,60.00
2019-05-06T16:02:59.798Z,60.80
2019-05-06T16:05:34.176Z,61.60
2019-05-06T16:08:07.094Z,62.50
2019-05-06T16:10:51.287Z,62.40
2019-05-06T16:13:09.517Z,62.80
2019-05-06T16:15:39.238Z,63.40
2019-05-06T16:18:09.060Z,62.40
2019-05-06T16:20:38.652Z,60.90
2019-05-06T16:23:09.816Z,61.00
2019-05-06T16:25:39.513Z,62.00
2019-05-06T16:28:12.802Z,62.80
2019-05-06T16:30:42.811Z,63.70
2019-05-06T16:33:18.857Z,63.80
2019-05-06T16:35:48.141Z,64.00
2019-05-06T16:38:18.455Z,64.10
2019-05-06T16:40:48.361Z,64.60
2019-05-06T16:43:18.005Z,64.60
2019-05-06T16:45:52.918Z,64.20
2019-05-06T16:48:22.516Z,65.10
2019-05-06T16:50:52.636Z,64.80
2019-05-06T16:53:22.940Z,63.60
2019-05-06T16:55:55.501Z,62.70
2019-05-06T16:58:25.843Z,62.10
2019-05-06T17:00:55.523Z,61.30
2019-05-06T17:03:26.975Z,62.60
2019-05-06T17:06:06.665Z,61.80
2019-05-06T17:08:36.767Z,62.40
2019-05-06T17:11:06.502Z,63.00
2019-05-06T17:13:37.850Z,63.60
2019-05-06T17:16:07.435Z,64.10
2019-05-06T17:18:37.102Z,63.10
2019-05-06T17:21:06.933Z,64.00
2019-05-06T17:23:36.584Z,63.70
2019-05-06T17:26:06.216Z,64.70
2019-05-06T17:28:38.995Z,63.90
2019-05-06T17:31:10.302Z,62.90
2019-05-06T17:33:42.849Z,62.90
2019-05-06T17:36:15.302Z,63.40
2019-05-06T17:38:46.499Z,64.30
2019-05-06T17:41:16.475Z,65.00
2019-05-06T17:43:46.065Z,65.30
2019-05-06T17:46:17.359Z,66.00
2019-05-06T17:48:48.694Z,66.20
2019-05-06T17:51:19.942Z,66.00
2019-05-06T17:53:52.271Z,66.40
2019-05-06T17:56:22.390Z,67.30
2019-05-06T17:58:53.191Z,68.00
2019-05-06T18:01:24.691Z,68.60
2019-05-06T18:03:54.414Z,69.30
2019-05-06T18:06:24.162Z,70.50
2019-05-06T18:08:53.675Z,71.80
2019-05-06T18:11:23.352Z,73.00
2019-05-06T18:13:53.050Z,73.40
2019-05-06T18:16:22.751Z,74.00
2019-05-06T18:18:52.477Z,75.90
2019-05-06T18:21:22.935Z,77.90
2019-05-06T18:23:52.783Z,78.40
2019-05-06T18:26:23.035Z,79.60
2019-05-06T18:28:53.972Z,80.10
2019-05-06T18:31:23.651Z,79.90
2019-05-06T18:33:53.255Z,80.40
2019-05-06T18:36:25.002Z,80.70
2019-05-06T18:38:54.693Z,80.80
2019-05-06T18:41:24.374Z,81.20
2019-05-06T18:43:53.989Z,81.10
2019-05-06T18:46:23.558Z,80.40
2019-05-06T18:48:53.170Z,79.50
2019-05-06T18:51:22.804Z,79.50
2019-05-06T18:53:52.596Z,79.00
2019-05-06T18:56:22.620Z,78.10
2019-05-06T18:58:52.968Z,77.50
2019-05-06T19:01:23.333Z,76.90
2019-05-06T19:03:55.135Z,76.60
2019-05-06T19:06:24.795Z,76.40
2019-05-06T19:08:56.061Z,76.50
2019-05-06T19:11:25.706Z,76.70
2019-05-06T19:13:55.327Z,77.00
2019-05-06T19:16:24.959Z,77.60
2019-05-06T19:18:54.614Z,78.40
2019-05-06T19:21:26.942Z,78.60
2019-05-06T19:23:56.632Z,78.90
2019-05-06T19:26:26.305Z,79.50
2019-05-06T19:28:55.916Z,79.90
2019-05-06T19:31:26.526Z,80.10
2019-05-06T19:34:12.632Z,80.30
2019-05-06T19:36:29.875Z,80.50
2019-05-06T19:38:59.596Z,80.90
2019-05-06T19:41:33.059Z,81.20
2019-05-06T19:44:02.261Z,81.50
2019-05-06T19:46:32.927Z,81.90
2019-05-06T19:49:03.603Z,82.20
2019-05-06T19:51:33.214Z,82.20
2019-05-06T19:54:04.036Z,82.20
2019-05-06T19:56:33.671Z,82.30
2019-05-06T19:59:03.339Z,82.60
2019-05-06T20:01:34.712Z,82.90
2019-05-06T20:04:04.507Z,83.20
2019-05-06T20:06:35.941Z,83.60
2019-05-06T20:09:22.071Z,84.10
2019-05-06T20:11:54.355Z,84.70
2019-05-06T20:14:24.089Z,84.90
2019-05-06T20:16:53.732Z,85.10
2019-05-06T20:19:30.924Z,85.80
2019-05-06T20:21:54.593Z,86.30
2019-05-06T20:24:24.140Z,86.80
2019-05-06T20:26:53.771Z,88.10
2019-05-06T20:29:23.370Z,87.40
2019-05-06T20:31:53.532Z,87.60
2019-05-06T20:34:23.662Z,87.30
2019-05-06T20:36:54.240Z,87.30
2019-05-06T20:39:24.142Z,87.20
2019-05-06T20:41:53.759Z,87.40
2019-05-06T20:44:23.494Z,87.60
2019-05-06T20:46:53.155Z,87.80
2019-05-06T20:49:22.699Z,88.20
2019-05-06T20:51:52.384Z,88.60
2019-05-06T20:54:23.800Z,88.90
2019-05-06T20:56:54.262Z,88.90
2019-05-06T20:59:23.859Z,88.80
2019-05-06T21:01:55.296Z,88.90
2019-05-06T21:04:24.696Z,88.50
2019-05-06T21:06:54.204Z,88.10
2019-05-06T21:09:23.805Z,87.70
2019-05-06T21:11:55.478Z,87.60
2019-05-06T21:14:25.084Z,87.70
2019-05-06T21:16:54.703Z,88.10
2019-05-06T21:19:24.236Z,88.10
2019-05-06T21:21:53.813Z,88.00
2019-05-06T21:24:23.383Z,87.90
2019-05-06T21:26:53.200Z,88.00
2019-05-06T21:29:23.253Z,87.80
2019-05-06T21:31:53.174Z,87.60
2019-05-06T21:34:22.846Z,87.60
2019-05-06T21:36:53.245Z,87.40
2019-05-06T21:39:22.960Z,87.40
2019-05-06T21:41:52.600Z,87.10
2019-05-06T21:44:23.241Z,87.00
2019-05-06T21:46:54.033Z,87.10
2019-05-06T21:49:23.768Z,87.10
2019-05-06T21:51:53.435Z,87.30
2019-05-06T21:54:23.228Z,87.50
2019-05-06T21:56:53.384Z,87.40
2019-05-06T21:59:22.933Z,87.60
2019-05-06T22:01:52.568Z,87.60
2019-05-06T22:04:23.313Z,87.70
2019-05-06T22:06:52.920Z,88.00
2019-05-06T22:09:22.693Z,88.30
2019-05-06T22:11:53.077Z,88.50
2019-05-06T22:14:23.122Z,88.70
2019-05-06T22:16:52.815Z,88.80
2019-05-06T22:19:22.314Z,88.80
2019-05-06T22:21:53.597Z,88.70
2019-05-06T22:24:25.658Z,88.60
2019-05-06T22:26:55.321Z,88.60
2019-05-06T22:29:24.985Z,88.40
2019-05-06T22:31:54.673Z,88.30
2019-05-06T22:34:24.244Z,88.40
2019-05-06T22:36:54.283Z,88.60
2019-05-06T22:39:24.298Z,88.60
2019-05-06T22:41:53.983Z,88.90
2019-05-06T22:44:23.689Z,89.00
2019-05-06T22:46:53.254Z,89.20
2019-05-06T22:49:23.317Z,89.30
2019-05-06T22:51:52.888Z,89.10
2019-05-06T22:54:24.357Z,88.80
2019-05-06T22:56:54.544Z,88.70
2019-05-06T22:59:25.315Z,88.60
2019-05-06T23:01:56.544Z,88.60
2019-05-06T23:04:27.852Z,88.40
2019-05-06T23:06:57.414Z,88.20
2019-05-06T23:09:27.097Z,88.10
2019-05-06T23:11:56.729Z,88.10
2019-05-06T23:14:31.530Z,88.10
2019-05-06T23:16:57.600Z,88.30
2019-05-06T23:19:27.169Z,88.40
2019-05-06T23:21:56.820Z,88.40
2019-05-06T23:24:26.400Z,88.20
2019-05-06T23:26:56.074Z,88.00
2019-05-06T23:29:25.589Z,87.90
2019-05-06T23:31:55.234Z,87.90
2019-05-06T23:34:24.931Z,87.90
2019-05-06T23:36:56.273Z,88.10
2019-05-06T23:39:28.899Z,88.20
2019-05-06T23:42:01.614Z,88.40
2019-05-06T23:44:44.997Z,88.60
2019-05-06T23:47:10.163Z,88.90
2019-05-06T23:49:42.848Z,89.00
2019-05-06T23:52:15.475Z,89.20
2019-05-06T23:54:48.147Z,90.10
2019-05-06T23:57:17.455Z,89.70
2019-05-06T23:59:48.588Z,90.00
